createdAt,value
2019-04-13T00:01:40.578Z,0.60
2019-04-13T00:04:11.653Z,0.80
2019-04-13T00:06:43.263Z,0.60
2019-04-13T00:09:14.322Z,0.60
2019-04-13T00:11:59.900Z,0.57
2019-04-13T00:14:29.214Z,0.60
2019-04-13T00:16:58.606Z,0.60
2019-04-13T00:19:27.880Z,0.60
2019-04-13T00:21:57.263Z,0.50
2019-04-13T00:24:26.527Z,0.60
2019-04-13T00:26:55.808Z,0.60
2019-04-13T00:29:25.169Z,0.60
2019-04-13T00:31:54.462Z,0.60
2019-04-13T00:34:23.830Z,0.60
2019-04-13T00:36:53.136Z,0.60
2019-04-13T00:39:22.417Z,0.60
2019-04-13T00:41:51.694Z,0.60
2019-04-13T00:44:20.966Z,1.43
2019-04-13T00:46:50.198Z,0.60
2019-04-13T00:49:20.749Z,0.60
2019-04-13T00:51:50.032Z,0.60
2019-04-13T00:54:19.362Z,0.70
2019-04-13T00:56:48.658Z,0.60
2019-04-13T00:59:17.916Z,2.30
2019-04-13T01:01:47.214Z,0.60
2019-04-13T01:04:16.416Z,0.70
2019-04-13T01:06:45.612Z,0.70
2019-04-13T01:09:14.817Z,0.70
2019-04-13T01:11:44.193Z,0.60
2019-04-13T01:14:13.447Z,0.70
2019-04-13T01:16:42.901Z,0.60
2019-04-13T01:19:12.139Z,0.60
2019-04-13T01:21:41.455Z,0.60
2019-04-13T01:24:11.545Z,2.93
2019-04-13T01:26:40.922Z,0.60
2019-04-13T01:29:10.269Z,0.60
2019-04-13T01:31:39.608Z,0.60
2019-04-13T01:34:08.815Z,0.60
2019-04-13T01:36:39.097Z,1.07
2019-04-13T01:39:08.481Z,0.70
2019-04-13T01:41:37.779Z,0.60
2019-04-13T01:44:06.959Z,0.60
2019-04-13T01:46:36.303Z,0.53
2019-04-13T01:49:05.605Z,0.60
2019-04-13T01:51:34.879Z,0.60
2019-04-13T01:54:04.173Z,3.23
2019-04-13T01:56:33.440Z,0.80
2019-04-13T01:59:02.713Z,0.90
2019-04-13T02:01:49.832Z,0.67
2019-04-13T02:04:40.858Z,1.47
2019-04-13T02:07:27.788Z,0.60
2019-04-13T02:10:07.402Z,0.80
2019-04-13T02:12:36.707Z,0.60
2019-04-13T02:15:06.493Z,1.03
2019-04-13T02:17:35.794Z,0.90
2019-04-13T02:20:06.197Z,0.60
2019-04-13T02:22:35.530Z,0.93
2019-04-13T02:25:05.198Z,0.60
2019-04-13T02:27:34.518Z,0.60
2019-04-13T02:30:04.494Z,0.53
2019-04-13T02:32:33.787Z,0.60
2019-04-13T02:35:03.092Z,0.60
2019-04-13T02:37:32.536Z,0.50
2019-04-13T02:40:01.891Z,0.60
2019-04-13T02:42:31.439Z,0.60
2019-04-13T02:45:00.795Z,0.80
2019-04-13T02:47:33.070Z,0.60
2019-04-13T02:50:02.520Z,0.60
2019-04-13T02:52:31.902Z,0.60
2019-04-13T02:55:01.197Z,0.60
2019-04-13T02:57:31.854Z,0.60
2019-04-13T03:00:01.178Z,0.60
2019-04-13T03:02:30.864Z,0.60
2019-04-13T03:05:00.183Z,0.60
2019-04-13T03:07:29.456Z,0.60
2019-04-13T03:09:58.748Z,0.60
2019-04-13T03:12:28.075Z,0.60
2019-04-13T03:14:57.275Z,0.60
2019-04-13T03:17:39.304Z,0.60
2019-04-13T03:20:16.017Z,0.70
2019-04-13T03:22:45.317Z,0.60
2019-04-13T03:25:14.521Z,0.60
2019-04-13T03:27:43.859Z,0.70
2019-04-13T03:30:14.343Z,0.60
2019-04-13T03:32:46.594Z,0.60
2019-04-13T03:35:16.161Z,0.60
2019-04-13T03:37:48.021Z,0.60
2019-04-13T03:40:17.468Z,0.90
2019-04-13T03:42:46.805Z,1.27
2019-04-13T03:45:16.219Z,0.60
2019-04-13T03:47:45.656Z,0.70
2019-04-13T03:50:15.016Z,0.80
2019-04-13T03:52:44.395Z,0.60
2019-04-13T03:55:13.749Z,0.70
2019-04-13T03:57:44.129Z,0.50
2019-04-13T04:00:13.447Z,0.60
2019-04-13T04:02:42.870Z,0.60
2019-04-13T04:05:12.280Z,0.60
2019-04-13T04:07:41.636Z,0.70
2019-04-13T04:10:11.665Z,0.60
2019-04-13T04:12:41.001Z,1.83
2019-04-13T04:15:10.527Z,0.60
2019-04-13T04:17:39.781Z,0.60
2019-04-13T04:20:09.316Z,0.60
2019-04-13T04:22:38.542Z,0.60
2019-04-13T04:25:07.758Z,0.60
2019-04-13T04:27:36.982Z,0.60
2019-04-13T04:30:06.766Z,0.60
2019-04-13T04:32:36.048Z,1.97
2019-04-13T04:35:05.988Z,0.60
2019-04-13T04:37:35.249Z,0.50
2019-04-13T04:40:05.036Z,0.60
2019-04-13T04:42:34.222Z,1.97
2019-04-13T04:45:03.671Z,0.70
2019-04-13T04:47:42.190Z,0.60
2019-04-13T04:50:11.815Z,0.60
2019-04-13T04:52:41.301Z,0.70
2019-04-13T04:55:10.706Z,0.60
2019-04-13T04:57:40.329Z,0.60
2019-04-13T05:00:10.148Z,2.03
2019-04-13T05:02:39.648Z,1.33
2019-04-13T05:05:09.738Z,0.50
2019-04-13T05:07:39.192Z,0.50
2019-04-13T05:10:08.673Z,4.40
2019-04-13T05:12:38.172Z,0.63
2019-04-13T05:15:13.589Z,0.60
2019-04-13T05:17:43.015Z,0.60
2019-04-13T05:20:12.616Z,1.43
2019-04-13T05:22:42.334Z,1.30
2019-04-13T05:25:11.851Z,0.60
2019-04-13T05:27:41.240Z,0.60
2019-04-13T05:30:11.007Z,0.60
2019-04-13T05:32:40.614Z,0.70
2019-04-13T05:35:10.053Z,0.60
2019-04-13T05:37:39.531Z,0.70
2019-04-13T05:40:09.008Z,0.60
2019-04-13T05:42:38.545Z,0.60
2019-04-13T05:45:08.419Z,1.10
2019-04-13T05:47:37.832Z,1.47
2019-04-13T05:50:08.370Z,0.63
2019-04-13T05:52:37.681Z,0.70
2019-04-13T05:55:07.819Z,0.60
2019-04-13T05:57:38.946Z,0.60
2019-04-13T06:00:08.793Z,0.67
2019-04-13T06:02:38.020Z,0.80
2019-04-13T06:05:07.871Z,0.77
2019-04-13T06:07:37.337Z,0.60
2019-04-13T06:10:07.625Z,0.60
2019-04-13T06:12:37.046Z,0.77
2019-04-13T06:15:07.349Z,0.60
2019-04-13T06:17:36.721Z,0.60
2019-04-13T06:20:06.735Z,0.67
2019-04-13T06:22:36.153Z,0.60
2019-04-13T06:25:09.461Z,0.70
2019-04-13T06:27:36.585Z,0.60
2019-04-13T06:30:25.744Z,0.90
2019-04-13T06:33:00.998Z,0.93
2019-04-13T06:35:30.339Z,1.33
2019-04-13T06:37:59.614Z,0.60
2019-04-13T06:40:28.886Z,0.60
2019-04-13T06:42:58.266Z,1.23
2019-04-13T06:45:29.200Z,0.60
2019-04-13T06:48:00.517Z,0.60
2019-04-13T06:50:29.811Z,0.60
2019-04-13T06:52:59.306Z,0.60
2019-04-13T06:55:28.626Z,0.60
2019-04-13T06:57:57.992Z,0.63
2019-04-13T07:00:28.806Z,0.80
2019-04-13T07:02:58.310Z,0.60
2019-04-13T07:05:28.252Z,1.00
2019-04-13T07:08:09.327Z,2.87
2019-04-13T07:10:52.368Z,2.57
2019-04-13T07:13:31.602Z,1.37
2019-04-13T07:16:04.802Z,0.87
2019-04-13T07:18:36.031Z,1.80
2019-04-13T07:21:05.225Z,9.80
2019-04-13T07:23:34.685Z,9.97
2019-04-13T07:26:06.520Z,12.17
2019-04-13T07:28:35.096Z,12.30
2019-04-13T07:31:06.615Z,11.97
2019-04-13T07:33:36.081Z,12.50
2019-04-13T07:36:05.515Z,1.27
2019-04-13T07:38:34.731Z,1.10
2019-04-13T07:41:03.975Z,0.73
2019-04-13T07:43:33.323Z,14.30
2019-04-13T07:46:24.735Z,0.97
2019-04-13T07:49:20.105Z,3.23
2019-04-13T07:52:08.388Z,1.30
2019-04-13T07:54:37.872Z,1.83
2019-04-13T07:57:07.305Z,0.60
2019-04-13T07:59:37.219Z,0.63
2019-04-13T08:02:07.732Z,4.20
2019-04-13T08:04:37.143Z,3.60
2019-04-13T08:07:06.613Z,11.37
2019-04-13T08:09:36.062Z,12.80
2019-04-13T08:12:05.564Z,13.87
2019-04-13T08:14:35.008Z,13.10
2019-04-13T08:17:09.589Z,12.63
2019-04-13T08:19:42.162Z,11.33
2019-04-13T08:22:11.498Z,12.10
2019-04-13T08:24:41.213Z,13.50
2019-04-13T08:27:10.766Z,12.17
2019-04-13T08:29:40.131Z,14.27
2019-04-13T08:32:11.176Z,14.27
2019-04-13T08:34:40.563Z,12.20
2019-04-13T08:37:11.598Z,12.13
2019-04-13T08:39:41.023Z,14.83
2019-04-13T08:42:19.424Z,13.10
2019-04-13T08:44:41.448Z,12.50
2019-04-13T08:47:10.865Z,13.20
2019-04-13T08:49:40.399Z,13.20
2019-04-13T08:52:09.890Z,13.30
2019-04-13T08:54:40.270Z,13.80
2019-04-13T08:57:09.770Z,14.63
2019-04-13T08:59:39.161Z,13.00
2019-04-13T09:02:08.626Z,15.10
2019-04-13T09:04:38.004Z,13.57
2019-04-13T09:07:07.497Z,12.80
2019-04-13T09:09:38.764Z,12.97
2019-04-13T09:12:11.029Z,13.47
2019-04-13T09:14:40.401Z,12.70
2019-04-13T09:17:14.888Z,12.47
2019-04-13T09:20:05.852Z,11.50
2019-04-13T09:22:35.674Z,12.77
2019-04-13T09:25:05.261Z,11.33
2019-04-13T09:27:35.420Z,11.80
2019-04-13T09:30:05.324Z,10.93
2019-04-13T09:32:34.639Z,11.87
2019-04-13T09:35:04.251Z,11.80
2019-04-13T09:37:33.611Z,11.77
2019-04-13T09:40:03.071Z,11.23
2019-04-13T09:42:34.948Z,11.00
2019-04-13T09:45:04.507Z,11.93
2019-04-13T09:47:36.227Z,11.55
2019-04-13T09:50:05.740Z,11.33
2019-04-13T09:52:35.138Z,11.50
2019-04-13T09:55:04.580Z,12.20
2019-04-13T09:57:34.199Z,10.60
2019-04-13T10:00:05.411Z,11.70
2019-04-13T10:02:36.348Z,11.33
2019-04-13T10:05:05.895Z,9.87
2019-04-13T10:07:35.356Z,11.10
2019-04-13T10:10:05.144Z,11.70
2019-04-13T10:12:52.323Z,11.57
2019-04-13T10:15:35.345Z,11.27
2019-04-13T10:18:10.576Z,9.83
2019-04-13T10:20:42.249Z,10.40
2019-04-13T10:23:11.086Z,11.87
2019-04-13T10:25:40.558Z,11.97
2019-04-13T10:28:10.034Z,10.40
2019-04-13T10:30:39.342Z,10.03
2019-04-13T10:33:08.576Z,11.40
2019-04-13T10:35:38.007Z,12.00
2019-04-13T10:38:07.499Z,10.77
2019-04-13T10:40:36.895Z,11.27
2019-04-13T10:43:06.614Z,11.00
2019-04-13T10:46:11.856Z,10.80
2019-04-13T10:48:49.819Z,11.30
2019-04-13T10:51:47.060Z,11.20
2019-04-13T10:54:15.654Z,11.20
2019-04-13T10:56:45.102Z,11.07
2019-04-13T10:59:14.763Z,12.00
2019-04-13T11:01:44.277Z,11.90
2019-04-13T11:04:13.605Z,11.57
2019-04-13T11:06:43.379Z,11.83
2019-04-13T11:09:21.379Z,10.77
2019-04-13T11:11:45.187Z,14.40
2019-04-13T11:14:21.922Z,11.40
2019-04-13T11:16:57.986Z,11.10
2019-04-13T11:19:25.519Z,11.87
2019-04-13T11:21:57.700Z,12.07
2019-04-13T11:24:28.437Z,12.40
2019-04-13T11:26:57.921Z,11.80
2019-04-13T11:29:27.511Z,13.30
2019-04-13T11:31:57.064Z,13.20
2019-04-13T11:34:29.048Z,14.33
2019-04-13T11:36:59.757Z,18.07
2019-04-13T11:39:34.228Z,18.80
2019-04-13T11:42:25.403Z,15.87
2019-04-13T11:45:12.893Z,12.73
2019-04-13T11:47:54.267Z,12.73
2019-04-13T11:50:34.629Z,12.03
2019-04-13T11:53:04.325Z,12.20
2019-04-13T11:55:34.736Z,11.70
2019-04-13T11:58:04.894Z,12.77
2019-04-13T12:00:49.629Z,13.10
2019-04-13T12:03:44.108Z,13.30
2019-04-13T12:06:22.630Z,13.70
2019-04-13T12:09:08.476Z,13.50
2019-04-13T12:11:55.905Z,13.00
2019-04-13T12:14:43.889Z,12.93
2019-04-13T12:17:32.342Z,13.17
2019-04-13T12:20:08.854Z,13.27
2019-04-13T12:22:38.540Z,12.70
2019-04-13T12:25:10.031Z,12.90
2019-04-13T12:27:41.274Z,12.93
2019-04-13T12:30:17.028Z,11.23
2019-04-13T12:32:47.094Z,12.67
2019-04-13T12:35:17.228Z,13.33
2019-04-13T12:37:46.744Z,13.87
2019-04-13T12:40:43.673Z,16.57
2019-04-13T12:43:13.637Z,12.43
2019-04-13T12:45:43.080Z,13.33
2019-04-13T12:48:17.510Z,12.33
2019-04-13T12:50:52.733Z,11.90
2019-04-13T12:53:22.258Z,13.13
2019-04-13T12:55:56.068Z,11.80
2019-04-13T12:58:23.688Z,12.20
2019-04-13T13:01:01.449Z,12.50
2019-04-13T13:03:30.682Z,12.90
2019-04-13T13:06:00.060Z,11.37
2019-04-13T13:08:29.454Z,11.30
2019-04-13T13:10:59.051Z,11.93
2019-04-13T13:13:28.359Z,12.33
2019-04-13T13:15:57.657Z,11.87
2019-04-13T13:18:27.237Z,11.20
2019-04-13T13:20:58.117Z,10.90
2019-04-13T13:23:27.727Z,11.90
2019-04-13T13:25:57.231Z,10.70
2019-04-13T13:28:26.626Z,11.30
2019-04-13T13:30:59.269Z,11.83
2019-04-13T13:33:32.963Z,11.63
2019-04-13T13:36:02.369Z,12.87
2019-04-13T13:38:31.803Z,11.60
2019-04-13T13:41:01.127Z,12.20
2019-04-13T13:43:30.527Z,12.87
2019-04-13T13:45:59.846Z,11.97
2019-04-13T13:48:29.265Z,10.70
2019-04-13T13:51:26.637Z,13.27
2019-04-13T13:53:53.742Z,12.93
2019-04-13T13:56:25.179Z,12.57
2019-04-13T13:58:59.366Z,12.57
2019-04-13T14:01:32.936Z,12.50
2019-04-13T14:04:02.235Z,13.60
2019-04-13T14:06:31.586Z,13.63
2019-04-13T14:09:03.930Z,13.00
2019-04-13T14:11:34.003Z,13.03
2019-04-13T14:14:04.557Z,15.43
2019-04-13T14:16:34.010Z,14.00
2019-04-13T14:19:03.398Z,12.27
2019-04-13T14:21:38.222Z,12.40
2019-04-13T14:24:08.488Z,11.43
2019-04-13T14:27:03.496Z,12.33
2019-04-13T14:29:32.945Z,13.33
2019-04-13T14:32:02.457Z,11.90
2019-04-13T14:34:31.874Z,12.23
2019-04-13T14:37:01.674Z,11.50
2019-04-13T14:39:34.554Z,11.83
2019-04-13T14:42:02.149Z,12.90
2019-04-13T14:44:31.449Z,9.70
2019-04-13T14:47:00.804Z,11.67
2019-04-13T14:49:30.115Z,11.70
2019-04-13T14:51:59.505Z,12.10
2019-04-13T14:54:28.890Z,12.10
2019-04-13T14:56:58.186Z,11.97
2019-04-13T14:59:27.493Z,13.20
2019-04-13T15:01:56.934Z,12.20
2019-04-13T15:04:26.196Z,12.57
2019-04-13T15:06:55.630Z,12.50
2019-04-13T15:09:25.177Z,11.07
2019-04-13T15:11:54.460Z,9.50
2019-04-13T15:14:25.862Z,11.73
2019-04-13T15:16:58.464Z,12.30
2019-04-13T15:19:36.204Z,12.43
2019-04-13T15:21:59.382Z,12.23
2019-04-13T15:24:28.847Z,12.60
2019-04-13T15:26:58.067Z,13.60
2019-04-13T15:29:31.338Z,13.00
2019-04-13T15:32:01.745Z,14.30
2019-04-13T15:34:34.910Z,11.00
2019-04-13T15:37:06.036Z,11.83
2019-04-13T15:39:39.879Z,13.60
2019-04-13T15:42:12.329Z,11.43
2019-04-13T15:44:37.319Z,11.87
2019-04-13T15:47:10.415Z,11.37
2019-04-13T15:49:38.876Z,9.80
2019-04-13T15:52:08.271Z,12.10
2019-04-13T15:54:37.555Z,11.37
2019-04-13T15:57:09.474Z,10.20
2019-04-13T15:59:38.000Z,12.10
2019-04-13T16:02:10.254Z,10.67
2019-04-13T16:04:42.574Z,11.50
2019-04-13T16:07:11.583Z,11.80
2019-04-13T16:10:00.219Z,9.90
2019-04-13T16:12:36.392Z,11.70
2019-04-13T16:15:06.096Z,11.30
2019-04-13T16:17:35.992Z,10.83
2019-04-13T16:20:05.959Z,11.20
2019-04-13T16:22:36.471Z,9.57
2019-04-13T16:25:07.298Z,10.83
2019-04-13T16:27:43.068Z,11.47
2019-04-13T16:30:32.659Z,11.07
2019-04-13T16:33:17.277Z,10.73
2019-04-13T16:35:53.895Z,11.17
2019-04-13T16:38:24.265Z,10.70
2019-04-13T16:41:15.452Z,9.90
2019-04-13T16:43:47.654Z,11.40
2019-04-13T16:46:38.683Z,10.60
2019-04-13T16:49:24.312Z,9.83
2019-04-13T16:52:11.504Z,10.17
2019-04-13T16:54:58.650Z,10.97
2019-04-13T16:57:43.642Z,11.20
2019-04-13T17:00:45.459Z,11.93
2019-04-13T17:03:25.068Z,10.27
2019-04-13T17:06:14.826Z,10.53
2019-04-13T17:08:44.857Z,11.00
2019-04-13T17:11:14.995Z,10.73
2019-04-13T17:13:44.562Z,7.50
2019-04-13T17:16:34.038Z,10.83
2019-04-13T17:19:26.245Z,11.00
2019-04-13T17:22:05.469Z,12.07
2019-04-13T17:25:05.720Z,12.37
2019-04-13T17:27:54.233Z,10.80
2019-04-13T17:30:54.607Z,10.57
2019-04-13T17:33:40.315Z,9.90
2019-04-13T17:36:10.434Z,12.10
2019-04-13T17:38:39.999Z,1.13
2019-04-13T17:41:28.255Z,1.00
2019-04-13T17:44:08.055Z,3.33
2019-04-13T17:47:12.543Z,0.80
2019-04-13T17:50:07.908Z,0.60
2019-04-13T17:53:03.503Z,0.70
2019-04-13T17:55:42.273Z,0.60
2019-04-13T17:58:37.695Z,0.60
2019-04-13T18:01:39.794Z,0.60
2019-04-13T18:04:28.797Z,1.53
2019-04-13T18:07:18.426Z,0.70
2019-04-13T18:10:11.250Z,0.60
2019-04-13T18:13:12.169Z,0.50
2019-04-13T18:16:01.790Z,0.60
2019-04-13T18:18:35.377Z,0.60
2019-04-13T18:21:05.738Z,0.60
2019-04-13T18:23:36.114Z,0.60
2019-04-13T18:26:06.363Z,0.70
2019-04-13T18:28:36.260Z,0.60
2019-04-13T18:31:06.402Z,0.60
2019-04-13T18:33:36.897Z,0.60
2019-04-13T18:36:07.104Z,0.60
2019-04-13T18:38:39.697Z,0.60
2019-04-13T18:41:08.284Z,0.60
2019-04-13T18:43:39.008Z,0.60
2019-04-13T18:46:09.398Z,0.60
2019-04-13T18:48:40.335Z,0.60
2019-04-13T18:51:10.512Z,0.70
2019-04-13T18:53:41.926Z,0.80
2019-04-13T18:56:12.470Z,0.60
2019-04-13T18:58:41.977Z,0.60
2019-04-13T19:01:11.598Z,0.60
2019-04-13T19:03:41.015Z,0.60
2019-04-13T19:06:10.405Z,1.27
2019-04-13T19:08:39.928Z,0.60
2019-04-13T19:11:11.595Z,0.60
2019-04-13T19:13:41.151Z,0.60
2019-04-13T19:16:10.459Z,0.60
2019-04-13T19:18:39.871Z,0.67
2019-04-13T19:21:09.123Z,0.60
2019-04-13T19:23:38.527Z,0.67
2019-04-13T19:26:07.800Z,0.70
2019-04-13T19:28:37.428Z,0.70
2019-04-13T19:31:06.907Z,0.60
2019-04-13T19:33:36.515Z,0.70
2019-04-13T19:36:05.693Z,0.60
2019-04-13T19:38:36.584Z,1.00
2019-04-13T19:41:06.367Z,0.60
2019-04-13T19:43:39.244Z,0.67
2019-04-13T19:46:08.681Z,0.67
2019-04-13T19:48:41.712Z,0.60
2019-04-13T19:51:12.792Z,0.80
2019-04-13T19:53:47.523Z,0.70
2019-04-13T19:56:18.432Z,0.80
2019-04-13T19:58:50.906Z,0.80
2019-04-13T20:01:26.433Z,1.90
2019-04-13T20:03:57.262Z,0.70
2019-04-13T20:06:26.716Z,0.67
2019-04-13T20:08:57.480Z,0.80
2019-04-13T20:11:27.010Z,0.60
2019-04-13T20:14:02.358Z,0.70
2019-04-13T20:16:27.861Z,0.60
2019-04-13T20:18:59.694Z,0.60
2019-04-13T20:21:29.294Z,0.60
2019-04-13T20:23:59.852Z,0.70
2019-04-13T20:26:29.429Z,0.60
2019-04-13T20:28:59.300Z,0.60
2019-04-13T20:31:33.729Z,0.60
2019-04-13T20:34:03.533Z,0.60
2019-04-13T20:36:36.842Z,0.60
2019-04-13T20:39:09.232Z,0.70
2019-04-13T20:41:45.688Z,0.60
2019-04-13T20:44:14.173Z,0.60
2019-04-13T20:46:53.760Z,1.23
2019-04-13T20:49:23.769Z,0.60
2019-04-13T20:51:53.401Z,0.60
2019-04-13T20:54:23.314Z,0.73
2019-04-13T20:56:53.464Z,0.60
2019-04-13T20:59:23.667Z,0.93
2019-04-13T21:01:53.840Z,1.93
2019-04-13T21:04:24.083Z,0.60
2019-04-13T21:06:54.239Z,0.60
2019-04-13T21:09:23.693Z,0.60
2019-04-13T21:11:53.162Z,0.70
2019-04-13T21:14:31.290Z,0.70
2019-04-13T21:16:56.065Z,0.60
2019-04-13T21:19:26.403Z,0.60
2019-04-13T21:21:58.467Z,0.60
2019-04-13T21:24:32.990Z,0.70
2019-04-13T21:27:03.223Z,0.60
2019-04-13T21:29:33.315Z,0.60
2019-04-13T21:32:02.967Z,0.60
2019-04-13T21:34:33.225Z,0.60
2019-04-13T21:37:03.159Z,0.60
2019-04-13T21:39:33.032Z,0.60
2019-04-13T21:42:05.361Z,0.70
2019-04-13T21:44:37.603Z,0.60
2019-04-13T21:47:05.515Z,0.60
2019-04-13T21:49:36.117Z,0.60
2019-04-13T21:52:30.274Z,0.70
2019-04-13T21:55:00.342Z,0.60
2019-04-13T21:57:30.526Z,0.60
2019-04-13T22:00:00.891Z,0.70
2019-04-13T22:02:37.657Z,0.60
2019-04-13T22:05:09.821Z,0.60
2019-04-13T22:07:39.654Z,0.70
2019-04-13T22:10:09.623Z,0.60
2019-04-13T22:12:39.403Z,0.70
2019-04-13T22:15:12.775Z,0.90
2019-04-13T22:17:42.696Z,0.70
2019-04-13T22:20:12.380Z,0.60
2019-04-13T22:22:42.539Z,0.70
2019-04-13T22:25:12.431Z,0.67
2019-04-13T22:27:50.563Z,0.70
2019-04-13T22:30:14.795Z,9.83
2019-04-13T22:32:47.371Z,10.27
2019-04-13T22:35:36.725Z,11.53
2019-04-13T22:38:06.700Z,12.53
2019-04-13T22:40:36.637Z,11.60
2019-04-13T22:43:06.799Z,13.47
2019-04-13T22:45:36.555Z,11.70
2019-04-13T22:48:40.552Z,15.90
2019-04-13T22:51:22.941Z,10.20
2019-04-13T22:54:10.757Z,12.20
2019-04-13T22:56:44.318Z,12.83
2019-04-13T22:59:14.041Z,11.17
2019-04-13T23:01:48.874Z,14.27
2019-04-13T23:04:18.982Z,12.27
2019-04-13T23:06:48.998Z,11.73
2019-04-13T23:09:19.234Z,13.30
2019-04-13T23:11:49.666Z,12.47
2019-04-13T23:14:22.157Z,13.20
2019-04-13T23:16:51.908Z,13.50
2019-04-13T23:19:21.935Z,13.97
2019-04-13T23:21:51.406Z,13.90
2019-04-13T23:24:21.322Z,12.47
2019-04-13T23:26:53.754Z,10.97
2019-04-13T23:29:23.534Z,11.80
2019-04-13T23:31:54.277Z,10.60
2019-04-13T23:34:24.608Z,12.23
2019-04-13T23:37:02.372Z,11.57
2019-04-13T23:39:32.375Z,11.83
2019-04-13T23:42:02.642Z,11.50
2019-04-13T23:44:33.247Z,0.70
2019-04-13T23:47:03.643Z,1.07
2019-04-13T23:49:34.083Z,0.60
2019-04-13T23:52:04.332Z,0.60
2019-04-13T23:54:36.797Z,0.50
2019-04-13T23:57:29.309Z,0.60
